KBLI/BLI METAR and TAF weather

Enter ICAO airport designator
Station Type Date Time Source
KBLI METAR 2019/12/13 21:53 UTC NOAA

KBLI 132153Z 19006KT 10SM SCT030 OVC035 09/05 A3004 RMK AO2 SLP181 T00890050


Station Type Date Time Source
KBLI Decoded METAR 2019/12/13 21:53 UTC NOAA

BELLINGHAM INTERNATIONAL AIRPORT, WA, United States (KBLI) 48-48N 122-32W 50M
Dec 13, 2019 - 04:53 PM EST / 2019.12.13 2153 UTC
Wind: from the S (190 degrees) at 7 MPH (6 KT):0
Visibility: 10 mile(s):0
Sky conditions: overcast
Temperature: 48.0 F (8.9 C)
Dew Point: 41.0 F (5.0 C)
Relative Humidity: 76%
Pressure (altimeter): 30.04 in. Hg (1017 hPa)
ob: KBLI 132153Z 19006KT 10SM SCT030 OVC035 09/05 A3004 RMK AO2 SLP181 T00890050
cycle: 22

Station Type Date Time Source
KBLI TAF 2019/12/13 18:28 UTC NOAA

TAF KBLI 131726Z 1318/1418 18007KT P6SM VCSH SCT020 OVC040
TEMPO 1318/1322 -SHRA BKN020
FM140300 VRB03KT P6SM VCSH BKN020 OVC030
FM140800 VRB03KT P6SM OVC015

Example: see airport list